sensor_id;sensor_type;location;lat;lon;timestamp;pressure;altitude;pressure_sealevel;temperature;humidity
71716;BME280;59568;52.128;5.434;2022-07-18T00:01:59;102590.44;;;16.49;61.00
71716;BME280;59568;52.128;5.434;2022-07-18T00:04:26;102581.25;;;16.47;60.88
71716;BME280;59568;52.128;5.434;2022-07-18T00:06:54;102584.75;;;16.42;61.16
71716;BME280;59568;52.128;5.434;2022-07-18T00:09:21;102580.28;;;16.37;60.94
71716;BME280;59568;52.128;5.434;2022-07-18T00:11:53;102580.38;;;16.32;61.46
71716;BME280;59568;52.128;5.434;2022-07-18T00:14:20;102582.28;;;16.27;61.47
71716;BME280;59568;52.128;5.434;2022-07-18T00:16:47;102581.53;;;16.21;61.28
71716;BME280;59568;52.128;5.434;2022-07-18T00:19:15;102573.69;;;16.16;60.86
71716;BME280;59568;52.128;5.434;2022-07-18T00:21:41;102579.28;;;16.09;61.64
71716;BME280;59568;52.128;5.434;2022-07-18T00:24:08;102575.38;;;16.07;61.52
71716;BME280;59568;52.128;5.434;2022-07-18T00:26:34;102576.22;;;16.02;61.70
71716;BME280;59568;52.128;5.434;2022-07-18T00:29:01;102570.72;;;15.98;61.79
71716;BME280;59568;52.128;5.434;2022-07-18T00:31:31;102569.69;;;15.94;61.63
71716;BME280;59568;52.128;5.434;2022-07-18T00:33:59;102567.09;;;15.89;62.16
71716;BME280;59568;52.128;5.434;2022-07-18T00:36:26;102569.78;;;15.84;62.11
71716;BME280;59568;52.128;5.434;2022-07-18T00:38:52;102571.41;;;15.80;62.57
71716;BME280;59568;52.128;5.434;2022-07-18T00:41:19;102571.97;;;15.77;62.49
71716;BME280;59568;52.128;5.434;2022-07-18T00:43:46;102562.50;;;15.71;62.76
71716;BME280;59568;52.128;5.434;2022-07-18T00:46:13;102567.25;;;15.69;62.46
71716;BME280;59568;52.128;5.434;2022-07-18T00:48:40;102562.81;;;15.64;62.67
71716;BME280;59568;52.128;5.434;2022-07-18T00:51:08;102549.19;;;15.57;63.20
71716;BME280;59568;52.128;5.434;2022-07-18T00:53:35;102556.88;;;15.53;63.69
71716;BME280;59568;52.128;5.434;2022-07-18T00:56:03;102557.91;;;15.52;63.24
71716;BME280;59568;52.128;5.434;2022-07-18T00:58:30;102557.69;;;15.49;63.16
71716;BME280;59568;52.128;5.434;2022-07-18T01:00:57;102552.47;;;15.44;63.85
71716;BME280;59568;52.128;5.434;2022-07-18T01:03:42;102552.22;;;15.40;63.71
71716;BME280;59568;52.128;5.434;2022-07-18T01:06:09;102549.91;;;15.33;63.55
71716;BME280;59568;52.128;5.434;2022-07-18T01:08:36;102556.50;;;15.31;64.11
71716;BME280;59568;52.128;5.434;2022-07-18T01:11:04;102552.06;;;15.26;64.39
71716;BME280;59568;52.128;5.434;2022-07-18T01:13:31;102545.50;;;15.24;64.06
71716;BME280;59568;52.128;5.434;2022-07-18T01:15:58;102554.97;;;15.25;64.29
71716;BME280;59568;52.128;5.434;2022-07-18T01:18:25;102556.56;;;15.21;64.44
71716;BME280;59568;52.128;5.434;2022-07-18T01:20:52;102556.34;;;15.17;64.75
71716;BME280;59568;52.128;5.434;2022-07-18T01:23:19;102549.81;;;15.09;64.53
71716;BME280;59568;52.128;5.434;2022-07-18T01:25:45;102549.00;;;15.09;65.06
71716;BME280;59568;52.128;5.434;2022-07-18T01:28:12;102546.69;;;15.07;64.98
71716;BME280;59568;52.128;5.434;2022-07-18T01:30:39;102547.22;;;15.04;64.76
71716;BME280;59568;52.128;5.434;2022-07-18T01:33:06;102553.03;;;15.01;64.73
71716;BME280;59568;52.128;5.434;2022-07-18T01:35:32;102543.56;;;15.00;64.95
71716;BME280;59568;52.128;5.434;2022-07-18T01:38:00;102552.78;;;14.97;64.97
71716;BME280;59568;52.128;5.434;2022-07-18T01:40:28;102556.22;;;14.93;65.29
71716;BME280;59568;52.128;5.434;2022-07-18T01:42:55;102538.88;;;14.87;65.58
71716;BME280;59568;52.128;5.434;2022-07-18T01:45:21;102550.75;;;14.84;64.89
71716;BME280;59568;52.128;5.434;2022-07-18T01:47:48;102537.34;;;14.81;65.09
71716;BME280;59568;52.128;5.434;2022-07-18T01:50:15;102535.00;;;14.79;64.83
71716;BME280;59568;52.128;5.434;2022-07-18T01:52:42;102530.00;;;14.77;65.24
71716;BME280;59568;52.128;5.434;2022-07-18T01:55:09;102527.91;;;14.74;65.32
71716;BME280;59568;52.128;5.434;2022-07-18T01:57:37;102524.25;;;14.70;65.67
71716;BME280;59568;52.128;5.434;2022-07-18T02:00:07;102526.38;;;14.68;65.50
71716;BME280;59568;52.128;5.434;2022-07-18T02:02:34;102525.59;;;14.63;66.16
71716;BME280;59568;52.128;5.434;2022-07-18T02:05:01;102528.28;;;14.57;65.70
71716;BME280;59568;52.128;5.434;2022-07-18T02:07:30;102531.94;;;14.56;65.78
71716;BME280;59568;52.128;5.434;2022-07-18T02:09:58;102536.94;;;14.53;65.58
71716;BME280;59568;52.128;5.434;2022-07-18T02:12:25;102543.25;;;14.52;65.73
71716;BME280;59568;52.128;5.434;2022-07-18T02:14:51;102536.69;;;14.49;65.48
71716;BME280;59568;52.128;5.434;2022-07-18T02:17:18;102535.41;;;14.47;65.53
71716;BME280;59568;52.128;5.434;2022-07-18T02:19:46;102533.28;;;14.44;66.08
71716;BME280;59568;52.128;5.434;2022-07-18T02:22:13;102525.94;;;14.41;66.10
71716;BME280;59568;52.128;5.434;2022-07-18T02:24:40;102514.91;;;14.38;65.99
71716;BME280;59568;52.128;5.434;2022-07-18T02:27:06;102514.91;;;14.38;65.55
71716;BME280;59568;52.128;5.434;2022-07-18T02:29:33;102509.41;;;14.35;65.66
71716;BME280;59568;52.128;5.434;2022-07-18T02:31:59;102502.31;;;14.30;66.41
71716;BME280;59568;52.128;5.434;2022-07-18T02:34:26;102508.38;;;14.26;66.71
71716;BME280;59568;52.128;5.434;2022-07-18T02:36:52;102500.53;;;14.21;66.74
71716;BME280;59568;52.128;5.434;2022-07-18T02:39:19;102499.19;;;14.18;67.21
71716;BME280;59568;52.128;5.434;2022-07-18T02:41:46;102499.75;;;14.15;66.68
71716;BME280;59568;52.128;5.434;2022-07-18T02:44:13;102510.28;;;14.15;66.79
71716;BME280;59568;52.128;5.434;2022-07-18T02:46:41;102508.94;;;14.12;66.72
71716;BME280;59568;52.128;5.434;2022-07-18T02:49:08;102515.53;;;14.10;66.51
71716;BME280;59568;52.128;5.434;2022-07-18T02:51:34;102508.44;;;14.10;66.29
71716;BME280;59568;52.128;5.434;2022-07-18T02:54:01;102508.19;;;14.07;66.69
71716;BME280;59568;52.128;5.434;2022-07-18T02:56:27;102510.81;;;14.07;66.65
71716;BME280;59568;52.128;5.434;2022-07-18T02:58:54;102511.09;;;14.05;66.97
71716;BME280;59568;52.128;5.434;2022-07-18T03:01:21;102508.19;;;14.02;66.60
71716;BME280;59568;52.128;5.434;2022-07-18T03:03:47;102504.53;;;13.97;67.87
71716;BME280;59568;52.128;5.434;2022-07-18T03:06:14;102509.25;;;13.95;66.82
71716;BME280;59568;52.128;5.434;2022-07-18T03:08:41;102513.22;;;13.93;67.22
71716;BME280;59568;52.128;5.434;2022-07-18T03:11:07;102506.38;;;13.92;66.82
71716;BME280;59568;52.128;5.434;2022-07-18T03:13:34;102508.50;;;13.90;66.88
71716;BME280;59568;52.128;5.434;2022-07-18T03:16:00;102509.03;;;13.87;67.11
71716;BME280;59568;52.128;5.434;2022-07-18T03:18:27;102500.34;;;13.86;67.44
71716;BME280;59568;52.128;5.434;2022-07-18T03:20:54;102502.44;;;13.84;66.90
71716;BME280;59568;52.128;5.434;2022-07-18T03:23:20;102508.78;;;13.83;67.22
71716;BME280;59568;52.128;5.434;2022-07-18T03:25:47;102497.22;;;13.79;67.86
71716;BME280;59568;52.128;5.434;2022-07-18T03:28:13;102494.06;;;13.77;68.07
71716;BME280;59568;52.128;5.434;2022-07-18T03:30:40;102477.00;;;13.74;67.57
71716;BME280;59568;52.128;5.434;2022-07-18T03:33:07;102483.03;;;13.70;67.59
71716;BME280;59568;52.128;5.434;2022-07-18T03:35:33;102478.84;;;13.69;67.35
71716;BME280;59568;52.128;5.434;2022-07-18T03:38:00;102474.63;;;13.68;67.42
71716;BME280;59568;52.128;5.434;2022-07-18T03:40:26;102471.50;;;13.66;67.64
71716;BME280;59568;52.128;5.434;2022-07-18T03:42:53;102467.56;;;13.63;67.92
71716;BME280;59568;52.128;5.434;2022-07-18T03:45:19;102470.44;;;13.62;67.71
71716;BME280;59568;52.128;5.434;2022-07-18T03:47:46;102478.06;;;13.63;67.67
71716;BME280;59568;52.128;5.434;2022-07-18T03:50:13;102463.63;;;13.61;68.01
71716;BME280;59568;52.128;5.434;2022-07-18T03:52:39;102467.84;;;13.56;68.57
71716;BME280;59568;52.128;5.434;2022-07-18T03:55:07;102462.59;;;13.56;67.96
71716;BME280;59568;52.128;5.434;2022-07-18T03:57:34;102461.00;;;13.61;67.49
71716;BME280;59568;52.128;5.434;2022-07-18T04:00:00;102449.44;;;13.62;67.92
71716;BME280;59568;52.128;5.434;2022-07-18T04:02:27;102450.75;;;13.59;67.48
71716;BME280;59568;52.128;5.434;2022-07-18T04:04:53;102453.66;;;13.57;67.94
71716;BME280;59568;52.128;5.434;2022-07-18T04:07:20;102443.41;;;13.51;68.29
71716;BME280;59568;52.128;5.434;2022-07-18T04:09:46;102449.47;;;13.51;68.20
71716;BME280;59568;52.128;5.434;2022-07-18T04:12:13;102448.69;;;13.51;67.50
71716;BME280;59568;52.128;5.434;2022-07-18T04:14:39;102455.50;;;13.52;67.40
71716;BME280;59568;52.128;5.434;2022-07-18T04:17:06;102436.84;;;13.53;67.92
71716;BME280;59568;52.128;5.434;2022-07-18T04:19:32;102432.66;;;13.52;67.64
71716;BME280;59568;52.128;5.434;2022-07-18T04:22:00;102433.69;;;13.51;67.53
71716;BME280;59568;52.128;5.434;2022-07-18T04:24:27;102441.56;;;13.51;67.85
71716;BME280;59568;52.128;5.434;2022-07-18T04:26:53;102445.28;;;13.50;67.33
71716;BME280;59568;52.128;5.434;2022-07-18T04:29:20;102436.84;;;13.53;67.31
71716;BME280;59568;52.128;5.434;2022-07-18T04:31:46;102435.00;;;13.54;67.42
71716;BME280;59568;52.128;5.434;2022-07-18T04:34:13;102433.19;;;13.54;67.46
71716;BME280;59568;52.128;5.434;2022-07-18T04:36:40;102439.72;;;13.57;67.30
71716;BME280;59568;52.128;5.434;2022-07-18T04:39:06;102443.41;;;13.61;67.07
71716;BME280;59568;52.128;5.434;2022-07-18T04:41:33;102438.41;;;13.65;67.66
71716;BME280;59568;52.128;5.434;2022-07-18T04:44:02;102437.84;;;13.68;67.93
71716;BME280;59568;52.128;5.434;2022-07-18T04:46:28;102441.00;;;13.70;66.96
71716;BME280;59568;52.128;5.434;2022-07-18T04:48:55;102445.75;;;13.73;68.14
71716;BME280;59568;52.128;5.434;2022-07-18T04:51:22;102436.53;;;13.75;68.59
71716;BME280;59568;52.128;5.434;2022-07-18T04:53:48;102434.16;;;13.79;67.70
71716;BME280;59568;52.128;5.434;2022-07-18T04:56:15;102435.72;;;13.85;67.97
71716;BME280;59568;52.128;5.434;2022-07-18T04:58:41;102438.88;;;13.92;67.62
71716;BME280;59568;52.128;5.434;2022-07-18T05:01:08;102437.78;;;13.98;67.75
71716;BME280;59568;52.128;5.434;2022-07-18T05:03:34;102446.66;;;14.08;68.94
71716;BME280;59568;52.128;5.434;2022-07-18T05:06:01;102452.97;;;14.12;69.63
71716;BME280;59568;52.128;5.434;2022-07-18T05:08:27;102461.63;;;14.17;68.01
71716;BME280;59568;52.128;5.434;2022-07-18T05:10:54;102451.31;;;14.31;67.45
71716;BME280;59568;52.128;5.434;2022-07-18T05:13:21;102450.75;;;14.39;67.39
71716;BME280;59568;52.128;5.434;2022-07-18T05:15:48;102453.88;;;14.47;66.90
71716;BME280;59568;52.128;5.434;2022-07-18T05:18:14;102449.13;;;14.49;67.43
71716;BME280;59568;52.128;5.434;2022-07-18T05:20:41;102447.00;;;14.51;68.40
71716;BME280;59568;52.128;5.434;2022-07-18T05:23:09;102442.25;;;14.53;68.95
71716;BME280;59568;52.128;5.434;2022-07-18T05:25:36;102450.13;;;14.58;68.44
71716;BME280;59568;52.128;5.434;2022-07-18T05:28:02;102449.03;;;14.64;66.02
71716;BME280;59568;52.128;5.434;2022-07-18T05:30:29;102452.94;;;14.72;67.96
71716;BME280;59568;52.128;5.434;2022-07-18T05:32:55;102457.53;;;14.90;67.09
71716;BME280;59568;52.128;5.434;2022-07-18T05:35:22;102457.25;;;15.55;66.07
71716;BME280;59568;52.128;5.434;2022-07-18T05:37:49;102447.47;;;16.28;64.09
71716;BME280;59568;52.128;5.434;2022-07-18T05:40:16;102446.09;;;16.50;64.99
71716;BME280;59568;52.128;5.434;2022-07-18T05:42:43;102448.31;;;16.43;62.86
71716;BME280;59568;52.128;5.434;2022-07-18T05:45:20;102442.09;;;16.33;66.13
71716;BME280;59568;52.128;5.434;2022-07-18T05:47:46;102445.09;;;16.65;64.00
71716;BME280;59568;52.128;5.434;2022-07-18T05:50:13;102438.63;;;18.33;62.20
71716;BME280;59568;52.128;5.434;2022-07-18T05:52:41;102433.84;;;20.01;58.91
71716;BME280;59568;52.128;5.434;2022-07-18T05:55:07;102428.88;;;20.60;57.31
71716;BME280;59568;52.128;5.434;2022-07-18T05:57:35;102427.06;;;20.99;57.31
71716;BME280;59568;52.128;5.434;2022-07-18T06:00:06;102430.31;;;21.13;57.84
71716;BME280;59568;52.128;5.434;2022-07-18T06:02:33;102423.41;;;21.12;55.50
71716;BME280;59568;52.128;5.434;2022-07-18T06:05:00;102416.66;;;20.85;56.68
71716;BME280;59568;52.128;5.434;2022-07-18T06:07:47;102412.81;;;20.30;57.93
71716;BME280;59568;52.128;5.434;2022-07-18T06:10:13;102413.25;;;20.15;58.53
71716;BME280;59568;52.128;5.434;2022-07-18T06:12:40;102411.22;;;20.29;59.75
71716;BME280;59568;52.128;5.434;2022-07-18T06:15:07;102413.72;;;20.43;55.96
71716;BME280;59568;52.128;5.434;2022-07-18T06:17:33;102415.94;;;20.59;56.55
71716;BME280;59568;52.128;5.434;2022-07-18T06:20:00;102409.44;;;20.86;57.68
71716;BME280;59568;52.128;5.434;2022-07-18T06:22:27;102410.19;;;21.04;57.12
71716;BME280;59568;52.128;5.434;2022-07-18T06:24:53;102409.47;;;21.24;56.74
71716;BME280;59568;52.128;5.434;2022-07-18T06:27:20;102403.47;;;21.36;55.76
71716;BME280;59568;52.128;5.434;2022-07-18T06:29:46;102408.94;;;21.40;56.03
71716;BME280;59568;52.128;5.434;2022-07-18T06:32:13;102410.53;;;21.32;56.36
71716;BME280;59568;52.128;5.434;2022-07-18T06:34:39;102413.91;;;21.50;55.40
71716;BME280;59568;52.128;5.434;2022-07-18T06:37:06;102413.56;;;21.81;55.13
71716;BME280;59568;52.128;5.434;2022-07-18T06:39:32;102419.72;;;22.15;53.87
71716;BME280;59568;52.128;5.434;2022-07-18T06:41:59;102412.97;;;22.39;53.64
71716;BME280;59568;52.128;5.434;2022-07-18T06:44:25;102404.53;;;22.37;53.53
71716;BME280;59568;52.128;5.434;2022-07-18T06:46:52;102411.47;;;22.29;54.01
71716;BME280;59568;52.128;5.434;2022-07-18T06:49:19;102412.56;;;22.07;54.60
71716;BME280;59568;52.128;5.434;2022-07-18T06:51:46;102417.53;;;21.96;56.17
71716;BME280;59568;52.128;5.434;2022-07-18T06:54:12;102414.41;;;21.94;56.25
71716;BME280;59568;52.128;5.434;2022-07-18T06:56:39;102420.63;;;21.98;56.02
71716;BME280;59568;52.128;5.434;2022-07-18T06:59:05;102420.78;;;22.02;55.39
71716;BME280;59568;52.128;5.434;2022-07-18T07:01:32;102415.50;;;22.14;55.57
71716;BME280;59568;52.128;5.434;2022-07-18T07:03:59;102414.66;;;22.22;55.09
71716;BME280;59568;52.128;5.434;2022-07-18T07:06:25;102400.78;;;22.38;55.18
71716;BME280;59568;52.128;5.434;2022-07-18T07:08:52;102404.81;;;22.56;54.63
71716;BME280;59568;52.128;5.434;2022-07-18T07:11:19;102411.97;;;22.89;54.54
71716;BME280;59568;52.128;5.434;2022-07-18T07:13:49;102406.91;;;23.33;53.82
71716;BME280;59568;52.128;5.434;2022-07-18T07:16:16;102404.19;;;23.70;52.90
71716;BME280;59568;52.128;5.434;2022-07-18T07:18:42;102401.72;;;23.89;52.53
71716;BME280;59568;52.128;5.434;2022-07-18T07:21:09;102401.06;;;23.80;52.93
71716;BME280;59568;52.128;5.434;2022-07-18T07:23:35;102400.88;;;23.61;53.63
71716;BME280;59568;52.128;5.434;2022-07-18T07:26:02;102400.88;;;23.61;53.92
71716;BME280;59568;52.128;5.434;2022-07-18T07:28:29;102403.53;;;23.73;53.67
71716;BME280;59568;52.128;5.434;2022-07-18T07:30:55;102401.28;;;23.87;52.54
71716;BME280;59568;52.128;5.434;2022-07-18T07:33:22;102403.09;;;24.11;52.52
71716;BME280;59568;52.128;5.434;2022-07-18T07:35:48;102400.91;;;24.29;52.90
71716;BME280;59568;52.128;5.434;2022-07-18T07:38:15;102392.59;;;24.47;53.13
71716;BME280;59568;52.128;5.434;2022-07-18T07:40:46;102401.44;;;24.63;51.11
71716;BME280;59568;52.128;5.434;2022-07-18T07:43:14;102404.59;;;24.85;52.22
71716;BME280;59568;52.128;5.434;2022-07-18T07:45:45;102410.66;;;24.98;50.10
71716;BME280;59568;52.128;5.434;2022-07-18T07:48:12;102407.53;;;25.11;51.43
71716;BME280;59568;52.128;5.434;2022-07-18T07:50:39;102417.88;;;25.29;50.66
71716;BME280;59568;52.128;5.434;2022-07-18T07:53:05;102424.09;;;25.33;50.46
71716;BME280;59568;52.128;5.434;2022-07-18T07:55:32;102415.25;;;25.48;51.27
71716;BME280;59568;52.128;5.434;2022-07-18T07:57:59;102411.91;;;25.71;49.38
71716;BME280;59568;52.128;5.434;2022-07-18T08:00:26;102407.81;;;25.77;50.75
71716;BME280;59568;52.128;5.434;2022-07-18T08:02:55;102417.13;;;25.83;48.05
71716;BME280;59568;52.128;5.434;2022-07-18T08:05:27;102410.25;;;26.02;49.34
71716;BME280;59568;52.128;5.434;2022-07-18T08:07:53;102407.00;;;26.12;49.09
71716;BME280;59568;52.128;5.434;2022-07-18T08:10:20;102406.44;;;26.22;49.83
71716;BME280;59568;52.128;5.434;2022-07-18T08:12:48;102396.03;;;26.40;48.56
71716;BME280;59568;52.128;5.434;2022-07-18T08:15:15;102397.03;;;26.32;47.56
71716;BME280;59568;52.128;5.434;2022-07-18T08:17:41;102392.13;;;26.15;48.69
71716;BME280;59568;52.128;5.434;2022-07-18T08:20:13;102393.97;;;26.34;49.11
71716;BME280;59568;52.128;5.434;2022-07-18T08:22:53;102391.03;;;26.62;49.23
71716;BME280;59568;52.128;5.434;2022-07-18T08:25:20;102389.00;;;26.78;49.28
71716;BME280;59568;52.128;5.434;2022-07-18T08:27:47;102386.97;;;26.95;47.10
71716;BME280;59568;52.128;5.434;2022-07-18T08:30:14;102390.50;;;27.02;46.91
71716;BME280;59568;52.128;5.434;2022-07-18T08:32:41;102383.22;;;27.26;46.42
71716;BME280;59568;52.128;5.434;2022-07-18T08:35:09;102383.13;;;27.49;47.22
71716;BME280;59568;52.128;5.434;2022-07-18T08:37:36;102385.63;;;27.65;48.06
71716;BME280;59568;52.128;5.434;2022-07-18T08:40:03;102385.81;;;27.79;47.10
71716;BME280;59568;52.128;5.434;2022-07-18T08:42:32;102382.47;;;27.89;46.04
71716;BME280;59568;52.128;5.434;2022-07-18T08:45:00;102379.63;;;28.13;47.35
71716;BME280;59568;52.128;5.434;2022-07-18T08:47:31;102389.44;;;28.32;44.38
71716;BME280;59568;52.128;5.434;2022-07-18T08:49:59;102386.47;;;28.44;45.41
71716;BME280;59568;52.128;5.434;2022-07-18T08:52:26;102396.59;;;28.61;45.00
71716;BME280;59568;52.128;5.434;2022-07-18T08:55:13;102392.78;;;28.62;43.31
71716;BME280;59568;52.128;5.434;2022-07-18T08:57:50;102384.13;;;28.91;43.43
71716;BME280;59568;52.128;5.434;2022-07-18T09:00:19;102389.31;;;29.17;45.50
71716;BME280;59568;52.128;5.434;2022-07-18T09:03:02;102389.47;;;29.50;44.95
71716;BME280;59568;52.128;5.434;2022-07-18T09:05:31;102391.56;;;29.85;43.62
71716;BME280;59568;52.128;5.434;2022-07-18T09:08:17;102394.28;;;30.03;44.24
71716;BME280;59568;52.128;5.434;2022-07-18T09:10:55;102388.06;;;29.88;43.10
71716;BME280;59568;52.128;5.434;2022-07-18T09:13:25;102392.75;;;29.98;44.24
71716;BME280;59568;52.128;5.434;2022-07-18T09:18:36;102401.03;;;29.50;43.76
71716;BME280;59568;52.128;5.434;2022-07-18T09:21:12;102396.00;;;29.45;44.43
71716;BME280;59568;52.128;5.434;2022-07-18T09:23:42;102393.31;;;29.48;43.24
71716;BME280;59568;52.128;5.434;2022-07-18T09:26:10;102393.34;;;29.56;43.98
71716;BME280;59568;52.128;5.434;2022-07-18T09:28:51;102387.84;;;29.31;44.09
71716;BME280;59568;52.128;5.434;2022-07-18T09:31:38;102390.44;;;29.13;45.39
71716;BME280;59568;52.128;5.434;2022-07-18T09:34:06;102382.69;;;29.04;45.00
71716;BME280;59568;52.128;5.434;2022-07-18T09:36:33;102382.59;;;28.86;45.51
71716;BME280;59568;52.128;5.434;2022-07-18T09:39:19;102385.91;;;28.68;45.68
71716;BME280;59568;52.128;5.434;2022-07-18T09:41:47;102379.69;;;28.61;45.13
71716;BME280;59568;52.128;5.434;2022-07-18T09:44:17;102374.34;;;28.64;44.40
71716;BME280;59568;52.128;5.434;2022-07-18T09:47:04;102376.41;;;28.82;44.89
71716;BME280;59568;52.128;5.434;2022-07-18T09:49:32;102380.59;;;28.76;46.18
71716;BME280;59568;52.128;5.434;2022-07-18T09:52:08;102380.06;;;28.56;45.62
71716;BME280;59568;52.128;5.434;2022-07-18T09:54:43;102378.69;;;28.35;46.63
71716;BME280;59568;52.128;5.434;2022-07-18T09:57:22;102380.03;;;28.11;46.46
71716;BME280;59568;52.128;5.434;2022-07-18T09:59:49;102374.56;;;28.04;47.19
71716;BME280;59568;52.128;5.434;2022-07-18T10:02:16;102361.63;;;28.17;47.66
71716;BME280;59568;52.128;5.434;2022-07-18T10:04:43;102365.09;;;28.58;47.42
71716;BME280;59568;52.128;5.434;2022-07-18T10:07:10;102365.06;;;29.14;46.15
71716;BME280;59568;52.128;5.434;2022-07-18T10:09:38;102367.59;;;29.58;45.35
71716;BME280;59568;52.128;5.434;2022-07-18T10:12:05;102368.03;;;29.71;43.46
71716;BME280;59568;52.128;5.434;2022-07-18T10:14:32;102367.31;;;29.89;42.84
71716;BME280;59568;52.128;5.434;2022-07-18T10:16:59;102358.84;;;30.08;43.88
71716;BME280;59568;52.128;5.434;2022-07-18T10:19:26;102358.88;;;30.15;37.93
71716;BME280;59568;52.128;5.434;2022-07-18T10:21:56;102360.84;;;30.33;40.78
71716;BME280;59568;52.128;5.434;2022-07-18T10:24:24;102360.06;;;30.61;41.25
71716;BME280;59568;52.128;5.434;2022-07-18T10:27:12;102362.72;;;30.79;39.94
71716;BME280;59568;52.128;5.434;2022-07-18T10:29:39;102358.84;;;30.87;41.73
71716;BME280;59568;52.128;5.434;2022-07-18T10:32:33;102361.91;;;31.07;41.17
71716;BME280;59568;52.128;5.434;2022-07-18T10:35:00;102361.03;;;31.32;40.90
71716;BME280;59568;52.128;5.434;2022-07-18T10:37:31;102360.59;;;31.40;40.87
71716;BME280;59568;52.128;5.434;2022-07-18T10:40:22;102362.44;;;31.65;41.25
71716;BME280;59568;52.128;5.434;2022-07-18T10:45:58;102355.31;;;31.89;38.60
71716;BME280;59568;52.128;5.434;2022-07-18T10:51:14;102352.41;;;32.21;35.20
71716;BME280;59568;52.128;5.434;2022-07-18T10:56:23;102353.50;;;32.31;39.38
71716;BME280;59568;52.128;5.434;2022-07-18T10:59:25;102355.25;;;32.52;38.25
71716;BME280;59568;52.128;5.434;2022-07-18T11:01:55;102351.00;;;32.51;32.35
71716;BME280;59568;52.128;5.434;2022-07-18T11:04:29;102357.38;;;32.72;36.83
71716;BME280;59568;52.128;5.434;2022-07-18T11:07:14;102344.16;;;32.81;35.85
71716;BME280;59568;52.128;5.434;2022-07-18T11:09:46;102347.66;;;32.78;34.88
71716;BME280;59568;52.128;5.434;2022-07-18T11:15:08;102348.88;;;33.08;37.06
71716;BME280;59568;52.128;5.434;2022-07-18T11:17:57;102347.34;;;33.07;36.66
71716;BME280;59568;52.128;5.434;2022-07-18T11:23:03;102332.53;;;33.18;35.01
71716;BME280;59568;52.128;5.434;2022-07-18T11:25:31;102333.19;;;33.26;36.89
71716;BME280;59568;52.128;5.434;2022-07-18T11:28:18;102327.75;;;33.26;33.43
71716;BME280;59568;52.128;5.434;2022-07-18T11:31:09;102323.84;;;33.31;35.54
71716;BME280;59568;52.128;5.434;2022-07-18T11:33:38;102322.09;;;33.44;32.85
71716;BME280;59568;52.128;5.434;2022-07-18T11:36:11;102325.75;;;33.61;35.12
71716;BME280;59568;52.128;5.434;2022-07-18T11:39:02;102322.53;;;33.70;35.95
71716;BME280;59568;52.128;5.434;2022-07-18T11:41:26;102327.88;;;33.77;36.24
71716;BME280;59568;52.128;5.434;2022-07-18T11:43:54;102326.75;;;33.98;36.50
71716;BME280;59568;52.128;5.434;2022-07-18T11:46:23;102312.22;;;33.85;35.34
71716;BME280;59568;52.128;5.434;2022-07-18T11:49:01;102321.81;;;33.93;35.83
71716;BME280;59568;52.128;5.434;2022-07-18T11:51:39;102315.53;;;33.96;35.59
71716;BME280;59568;52.128;5.434;2022-07-18T11:54:07;102316.59;;;34.02;31.71
71716;BME280;59568;52.128;5.434;2022-07-18T11:56:48;102310.59;;;34.14;35.03
71716;BME280;59568;52.128;5.434;2022-07-18T11:59:15;102309.03;;;34.17;35.78
71716;BME280;59568;52.128;5.434;2022-07-18T12:01:42;102303.16;;;34.18;31.95
71716;BME280;59568;52.128;5.434;2022-07-18T12:04:24;102303.63;;;34.13;33.32
71716;BME280;59568;52.128;5.434;2022-07-18T12:09:39;102292.06;;;34.33;35.00
71716;BME280;59568;52.128;5.434;2022-07-18T12:12:09;102293.53;;;34.37;35.15
71716;BME280;59568;52.128;5.434;2022-07-18T12:15:01;102294.53;;;34.47;32.84
71716;BME280;59568;52.128;5.434;2022-07-18T12:17:29;102294.25;;;34.61;32.94
71716;BME280;59568;52.128;5.434;2022-07-18T12:20:12;102296.00;;;34.72;33.58
71716;BME280;59568;52.128;5.434;2022-07-18T12:23:05;102288.75;;;34.85;34.60
71716;BME280;59568;52.128;5.434;2022-07-18T12:25:40;102283.16;;;34.92;34.02
71716;BME280;59568;52.128;5.434;2022-07-18T12:28:17;102286.84;;;35.02;32.73
71716;BME280;59568;52.128;5.434;2022-07-18T12:30:45;102288.63;;;35.09;32.83
71716;BME280;59568;52.128;5.434;2022-07-18T12:33:12;102274.97;;;35.12;32.51
71716;BME280;59568;52.128;5.434;2022-07-18T12:35:39;102276.81;;;34.99;27.25
71716;BME280;59568;52.128;5.434;2022-07-18T12:38:12;102288.94;;;34.94;32.25
71716;BME280;59568;52.128;5.434;2022-07-18T12:40:40;102286.50;;;35.00;29.25
71716;BME280;59568;52.128;5.434;2022-07-18T12:43:09;102275.75;;;35.13;32.91
71716;BME280;59568;52.128;5.434;2022-07-18T12:45:38;102274.53;;;35.34;30.82
71716;BME280;59568;52.128;5.434;2022-07-18T12:48:06;102269.84;;;35.34;27.86
71716;BME280;59568;52.128;5.434;2022-07-18T12:50:34;102264.75;;;35.36;31.11
71716;BME280;59568;52.128;5.434;2022-07-18T12:53:01;102272.56;;;35.51;30.67
71716;BME280;59568;52.128;5.434;2022-07-18T12:55:27;102268.22;;;35.53;31.87
71716;BME280;59568;52.128;5.434;2022-07-18T12:57:58;102264.09;;;35.49;30.20
71716;BME280;59568;52.128;5.434;2022-07-18T13:00:25;102259.66;;;35.38;30.08
71716;BME280;59568;52.128;5.434;2022-07-18T13:02:52;102260.34;;;35.59;31.89
71716;BME280;59568;52.128;5.434;2022-07-18T13:05:18;102253.56;;;35.51;31.76
71716;BME280;59568;52.128;5.434;2022-07-18T13:07:45;102258.66;;;35.49;32.44
71716;BME280;59568;52.128;5.434;2022-07-18T13:10:11;102245.91;;;35.62;29.20
71716;BME280;59568;52.128;5.434;2022-07-18T13:12:38;102243.34;;;35.71;31.38
71716;BME280;59568;52.128;5.434;2022-07-18T13:15:05;102245.47;;;35.80;30.71
71716;BME280;59568;52.128;5.434;2022-07-18T13:17:32;102240.13;;;35.76;31.16
71716;BME280;59568;52.128;5.434;2022-07-18T13:19:58;102246.25;;;35.80;31.17